sensor_id;sensor_type;location;lat;lon;timestamp;pressure;altitude;pressure_sealevel;temperature
9985;BMP180;16737;50.932;6.780;2023-08-30T00:01:29;99640.00;;;20.70
9985;BMP180;16737;50.932;6.780;2023-08-30T00:03:58;99640.00;;;20.70
9985;BMP180;16737;50.932;6.780;2023-08-30T00:06:25;99595.00;;;20.70
9985;BMP180;16737;50.932;6.780;2023-08-30T00:08:52;99646.00;;;20.80
9985;BMP180;16737;50.932;6.780;2023-08-30T00:11:19;99641.00;;;20.80
9985;BMP180;16737;50.932;6.780;2023-08-30T00:13:48;99596.00;;;20.80
9985;BMP180;16737;50.932;6.780;2023-08-30T00:16:15;99637.00;;;20.90
9985;BMP180;16737;50.932;6.780;2023-08-30T00:18:43;99635.00;;;20.90
9985;BMP180;16737;50.932;6.780;2023-08-30T00:21:11;99634.00;;;20.90
9985;BMP180;16737;50.932;6.780;2023-08-30T00:23:38;99631.00;;;20.90
9985;BMP180;16737;50.932;6.780;2023-08-30T00:26:05;99633.00;;;20.90
9985;BMP180;16737;50.932;6.780;2023-08-30T00:28:33;99630.00;;;20.90
9985;BMP180;16737;50.932;6.780;2023-08-30T00:31:00;99606.00;;;21.00
9985;BMP180;16737;50.932;6.780;2023-08-30T00:33:27;99509.00;;;21.00
9985;BMP180;16737;50.932;6.780;2023-08-30T00:35:57;99623.00;;;21.00
9985;BMP180;16737;50.932;6.780;2023-08-30T00:38:27;99620.00;;;21.00
9985;BMP180;16737;50.932;6.780;2023-08-30T00:40:54;99618.00;;;21.00
9985;BMP180;16737;50.932;6.780;2023-08-30T00:43:21;99623.00;;;21.00
9985;BMP180;16737;50.932;6.780;2023-08-30T00:45:49;99575.00;;;21.00
9985;BMP180;16737;50.932;6.780;2023-08-30T00:48:19;99616.00;;;21.00
9985;BMP180;16737;50.932;6.780;2023-08-30T00:50:46;99616.00;;;21.10
9985;BMP180;16737;50.932;6.780;2023-08-30T00:53:13;99592.00;;;21.10
9985;BMP180;16737;50.932;6.780;2023-08-30T00:55:42;99613.00;;;21.00
9985;BMP180;16737;50.932;6.780;2023-08-30T00:58:11;99620.00;;;21.10
9985;BMP180;16737;50.932;6.780;2023-08-30T01:00:39;99625.00;;;21.10
9985;BMP180;16737;50.932;6.780;2023-08-30T01:03:07;99610.00;;;21.10
9985;BMP180;16737;50.932;6.780;2023-08-30T01:05:34;99608.00;;;21.10
9985;BMP180;16737;50.932;6.780;2023-08-30T01:08:02;99523.00;;;21.10
9985;BMP180;16737;50.932;6.780;2023-08-30T01:10:47;99531.00;;;21.10
9985;BMP180;16737;50.932;6.780;2023-08-30T01:13:19;99588.00;;;21.00
9985;BMP180;16737;50.932;6.780;2023-08-30T01:15:48;99562.00;;;21.10
9985;BMP180;16737;50.932;6.780;2023-08-30T01:18:18;99599.00;;;21.10
9985;BMP180;16737;50.932;6.780;2023-08-30T01:20:48;99583.00;;;21.00
9985;BMP180;16737;50.932;6.780;2023-08-30T01:23:29;99594.00;;;21.00
9985;BMP180;16737;50.932;6.780;2023-08-30T01:26:11;99591.00;;;21.00
9985;BMP180;16737;50.932;6.780;2023-08-30T01:28:41;99579.00;;;20.90
9985;BMP180;16737;50.932;6.780;2023-08-30T01:31:09;99582.00;;;20.90
9985;BMP180;16737;50.932;6.780;2023-08-30T01:33:38;99545.00;;;20.90
9985;BMP180;16737;50.932;6.780;2023-08-30T01:36:06;99582.00;;;20.70
9985;BMP180;16737;50.932;6.780;2023-08-30T01:38:35;99571.00;;;20.70
9985;BMP180;16737;50.932;6.780;2023-08-30T01:41:04;99535.00;;;20.70
9985;BMP180;16737;50.932;6.780;2023-08-30T01:43:31;99580.00;;;20.70
9985;BMP180;16737;50.932;6.780;2023-08-30T01:46:03;99570.00;;;20.50
9985;BMP180;16737;50.932;6.780;2023-08-30T01:48:32;99570.00;;;20.60
9985;BMP180;16737;50.932;6.780;2023-08-30T01:51:01;99571.00;;;20.60
9985;BMP180;16737;50.932;6.780;2023-08-30T01:53:28;99541.00;;;20.60
9985;BMP180;16737;50.932;6.780;2023-08-30T01:55:56;99549.00;;;20.60
9985;BMP180;16737;50.932;6.780;2023-08-30T01:58:23;99565.00;;;20.60
9985;BMP180;16737;50.932;6.780;2023-08-30T02:00:50;99566.00;;;20.50
9985;BMP180;16737;50.932;6.780;2023-08-30T02:03:18;99561.00;;;20.50
9985;BMP180;16737;50.932;6.780;2023-08-30T02:06:00;99529.00;;;20.40
9985;BMP180;16737;50.932;6.780;2023-08-30T02:08:38;99567.00;;;20.40
9985;BMP180;16737;50.932;6.780;2023-08-30T02:11:13;99564.00;;;20.40
9985;BMP180;16737;50.932;6.780;2023-08-30T02:13:44;99546.00;;;20.40
9985;BMP180;16737;50.932;6.780;2023-08-30T02:16:13;99562.00;;;20.40
9985;BMP180;16737;50.932;6.780;2023-08-30T02:18:43;99567.00;;;20.30
9985;BMP180;16737;50.932;6.780;2023-08-30T02:21:10;99543.00;;;20.30
9985;BMP180;16737;50.932;6.780;2023-08-30T02:23:37;99573.00;;;20.30
9985;BMP180;16737;50.932;6.780;2023-08-30T02:26:04;99573.00;;;20.30
9985;BMP180;16737;50.932;6.780;2023-08-30T02:28:31;99573.00;;;20.30
9985;BMP180;16737;50.932;6.780;2023-08-30T02:30:58;99443.00;;;19.70
9985;BMP180;16737;50.932;6.780;2023-08-30T02:33:25;99576.00;;;20.20
9985;BMP180;16737;50.932;6.780;2023-08-30T02:35:54;99561.00;;;20.20
9985;BMP180;16737;50.932;6.780;2023-08-30T02:38:21;99564.00;;;20.20
9985;BMP180;16737;50.932;6.780;2023-08-30T02:40:48;99546.00;;;20.20
9985;BMP180;16737;50.932;6.780;2023-08-30T02:43:16;99564.00;;;20.20
9985;BMP180;16737;50.932;6.780;2023-08-30T02:45:43;99570.00;;;20.20
9985;BMP180;16737;50.932;6.780;2023-08-30T02:48:10;99575.00;;;20.10
9985;BMP180;16737;50.932;6.780;2023-08-30T02:50:37;99554.00;;;20.10
9985;BMP180;16737;50.932;6.780;2023-08-30T02:53:06;99553.00;;;20.10
9985;BMP180;16737;50.932;6.780;2023-08-30T02:55:34;99484.00;;;20.10
9985;BMP180;16737;50.932;6.780;2023-08-30T02:58:01;99556.00;;;20.10
9985;BMP180;16737;50.932;6.780;2023-08-30T03:00:28;99545.00;;;20.10
9985;BMP180;16737;50.932;6.780;2023-08-30T03:02:55;99542.00;;;20.00
9985;BMP180;16737;50.932;6.780;2023-08-30T03:05:22;99478.00;;;20.00
9985;BMP180;16737;50.932;6.780;2023-08-30T03:07:49;99490.00;;;20.00
9985;BMP180;16737;50.932;6.780;2023-08-30T03:10:18;99504.00;;;19.90
9985;BMP180;16737;50.932;6.780;2023-08-30T03:12:45;99522.00;;;19.90
9985;BMP180;16737;50.932;6.780;2023-08-30T03:15:12;99499.00;;;19.90
9985;BMP180;16737;50.932;6.780;2023-08-30T03:17:39;99402.00;;;19.90
9985;BMP180;16737;50.932;6.780;2023-08-30T03:20:07;99486.00;;;19.90
9985;BMP180;16737;50.932;6.780;2023-08-30T03:22:35;99529.00;;;19.90
9985;BMP180;16737;50.932;6.780;2023-08-30T03:25:02;99509.00;;;19.90
9985;BMP180;16737;50.932;6.780;2023-08-30T03:27:32;99516.00;;;19.80
9985;BMP180;16737;50.932;6.780;2023-08-30T03:29:59;99516.00;;;19.80
9985;BMP180;16737;50.932;6.780;2023-08-30T03:32:26;99498.00;;;19.80
9985;BMP180;16737;50.932;6.780;2023-08-30T03:34:53;99504.00;;;19.60
9985;BMP180;16737;50.932;6.780;2023-08-30T03:37:20;99391.00;;;19.80
9985;BMP180;16737;50.932;6.780;2023-08-30T03:39:48;99467.00;;;19.80
9985;BMP180;16737;50.932;6.780;2023-08-30T03:42:15;99499.00;;;19.80
9985;BMP180;16737;50.932;6.780;2023-08-30T03:44:43;99458.00;;;19.80
9985;BMP180;16737;50.932;6.780;2023-08-30T03:47:11;99475.00;;;19.70
9985;BMP180;16737;50.932;6.780;2023-08-30T03:49:38;99440.00;;;19.70
9985;BMP180;16737;50.932;6.780;2023-08-30T03:52:05;99502.00;;;19.70
9985;BMP180;16737;50.932;6.780;2023-08-30T03:54:33;99504.00;;;19.70
9985;BMP180;16737;50.932;6.780;2023-08-30T03:57:00;99498.00;;;19.70
9985;BMP180;16737;50.932;6.780;2023-08-30T03:59:28;99505.00;;;19.70
9985;BMP180;16737;50.932;6.780;2023-08-30T04:01:57;99490.00;;;19.60
9985;BMP180;16737;50.932;6.780;2023-08-30T04:04:24;99383.00;;;19.60
9985;BMP180;16737;50.932;6.780;2023-08-30T04:06:51;99494.00;;;19.60
9985;BMP180;16737;50.932;6.780;2023-08-30T04:09:18;99491.00;;;19.60
9985;BMP180;16737;50.932;6.780;2023-08-30T04:11:46;99492.00;;;19.60
9985;BMP180;16737;50.932;6.780;2023-08-30T04:14:13;99462.00;;;19.60
9985;BMP180;16737;50.932;6.780;2023-08-30T04:16:41;99494.00;;;19.60
9985;BMP180;16737;50.932;6.780;2023-08-30T04:19:09;99489.00;;;19.50
9985;BMP180;16737;50.932;6.780;2023-08-30T04:21:36;99493.00;;;19.50
9985;BMP180;16737;50.932;6.780;2023-08-30T04:24:05;99491.00;;;19.50
9985;BMP180;16737;50.932;6.780;2023-08-30T04:26:32;99455.00;;;19.50
9985;BMP180;16737;50.932;6.780;2023-08-30T04:28:59;99458.00;;;19.40
9985;BMP180;16737;50.932;6.780;2023-08-30T04:31:29;99459.00;;;19.40
9985;BMP180;16737;50.932;6.780;2023-08-30T04:33:56;99468.00;;;19.40
9985;BMP180;16737;50.932;6.780;2023-08-30T04:36:24;99438.00;;;19.30
9985;BMP180;16737;50.932;6.780;2023-08-30T04:38:51;99448.00;;;19.30
9985;BMP180;16737;50.932;6.780;2023-08-30T04:41:19;99469.00;;;19.30
9985;BMP180;16737;50.932;6.780;2023-08-30T04:43:46;99468.00;;;19.10
9985;BMP180;16737;50.932;6.780;2023-08-30T04:46:13;99469.00;;;19.20
9985;BMP180;16737;50.932;6.780;2023-08-30T04:48:41;99444.00;;;19.20
9985;BMP180;16737;50.932;6.780;2023-08-30T04:51:08;99480.00;;;19.20
9985;BMP180;16737;50.932;6.780;2023-08-30T04:53:36;99468.00;;;19.20
9985;BMP180;16737;50.932;6.780;2023-08-30T04:56:11;99483.00;;;19.20
9985;BMP180;16737;50.932;6.780;2023-08-30T04:58:41;99418.00;;;19.20
9985;BMP180;16737;50.932;6.780;2023-08-30T05:01:12;99285.00;;;19.20
9985;BMP180;16737;50.932;6.780;2023-08-30T05:03:42;99473.00;;;19.10
9985;BMP180;16737;50.932;6.780;2023-08-30T05:06:10;99463.00;;;19.10
9985;BMP180;16737;50.932;6.780;2023-08-30T05:08:41;99469.00;;;19.00
9985;BMP180;16737;50.932;6.780;2023-08-30T05:11:10;99455.00;;;19.00
9985;BMP180;16737;50.932;6.780;2023-08-30T05:13:40;99447.00;;;19.00
9985;BMP180;16737;50.932;6.780;2023-08-30T05:16:10;99417.00;;;18.90
9985;BMP180;16737;50.932;6.780;2023-08-30T05:18:40;99456.00;;;18.90
9985;BMP180;16737;50.932;6.780;2023-08-30T05:21:08;99466.00;;;18.80
9985;BMP180;16737;50.932;6.780;2023-08-30T05:23:47;99447.00;;;18.80
9985;BMP180;16737;50.932;6.780;2023-08-30T05:26:17;99456.00;;;18.70
9985;BMP180;16737;50.932;6.780;2023-08-30T05:28:45;99457.00;;;18.60
9985;BMP180;16737;50.932;6.780;2023-08-30T05:31:17;99306.00;;;18.70
9985;BMP180;16737;50.932;6.780;2023-08-30T05:33:45;99452.00;;;18.70
9985;BMP180;16737;50.932;6.780;2023-08-30T05:36:13;99374.00;;;18.70
9985;BMP180;16737;50.932;6.780;2023-08-30T05:38:41;99439.00;;;18.60
9985;BMP180;16737;50.932;6.780;2023-08-30T05:41:11;99436.00;;;18.60
9985;BMP180;16737;50.932;6.780;2023-08-30T05:43:41;99432.00;;;18.60
9985;BMP180;16737;50.932;6.780;2023-08-30T05:46:09;99355.00;;;18.60
9985;BMP180;16737;50.932;6.780;2023-08-30T05:48:40;99429.00;;;18.60
9985;BMP180;16737;50.932;6.780;2023-08-30T05:51:08;99285.00;;;18.60
9985;BMP180;16737;50.932;6.780;2023-08-30T05:53:42;99422.00;;;18.60
9985;BMP180;16737;50.932;6.780;2023-08-30T05:56:23;99432.00;;;18.60
9985;BMP180;16737;50.932;6.780;2023-08-30T05:58:51;99395.00;;;18.60
9985;BMP180;16737;50.932;6.780;2023-08-30T06:01:25;99426.00;;;18.60
9985;BMP180;16737;50.932;6.780;2023-08-30T06:03:53;99403.00;;;18.60
9985;BMP180;16737;50.932;6.780;2023-08-30T06:06:27;99426.00;;;18.60
9985;BMP180;16737;50.932;6.780;2023-08-30T06:09:11;99422.00;;;18.60
9985;BMP180;16737;50.932;6.780;2023-08-30T06:11:53;99401.00;;;18.60
9985;BMP180;16737;50.932;6.780;2023-08-30T06:14:21;99331.00;;;18.60
9985;BMP180;16737;50.932;6.780;2023-08-30T06:16:48;99332.00;;;18.60
9985;BMP180;16737;50.932;6.780;2023-08-30T06:19:21;99414.00;;;18.60
9985;BMP180;16737;50.932;6.780;2023-08-30T06:21:48;99398.00;;;18.70
9985;BMP180;16737;50.932;6.780;2023-08-30T06:24:19;99402.00;;;18.60
9985;BMP180;16737;50.932;6.780;2023-08-30T06:26:50;99400.00;;;18.30
9985;BMP180;16737;50.932;6.780;2023-08-30T06:29:17;99368.00;;;18.70
9985;BMP180;16737;50.932;6.780;2023-08-30T06:31:48;99412.00;;;18.60
9985;BMP180;16737;50.932;6.780;2023-08-30T06:34:19;99411.00;;;18.80
9985;BMP180;16737;50.932;6.780;2023-08-30T06:36:49;99414.00;;;18.80
9985;BMP180;16737;50.932;6.780;2023-08-30T06:39:33;99393.00;;;18.80
9985;BMP180;16737;50.932;6.780;2023-08-30T06:42:01;99386.00;;;18.90
9985;BMP180;16737;50.932;6.780;2023-08-30T06:44:28;99389.00;;;18.90
9985;BMP180;16737;50.932;6.780;2023-08-30T06:46:57;99404.00;;;19.00
9985;BMP180;16737;50.932;6.780;2023-08-30T06:49:24;99330.00;;;19.00
9985;BMP180;16737;50.932;6.780;2023-08-30T06:51:51;99381.00;;;19.10
9985;BMP180;16737;50.932;6.780;2023-08-30T06:54:19;99385.00;;;19.20
9985;BMP180;16737;50.932;6.780;2023-08-30T06:57:03;99270.00;;;19.20
9985;BMP180;16737;50.932;6.780;2023-08-30T06:59:33;99297.00;;;19.30
9985;BMP180;16737;50.932;6.780;2023-08-30T07:02:00;99273.00;;;19.30
9985;BMP180;16737;50.932;6.780;2023-08-30T07:04:27;99342.00;;;19.40
9985;BMP180;16737;50.932;6.780;2023-08-30T07:06:55;99352.00;;;19.40
9985;BMP180;16737;50.932;6.780;2023-08-30T07:09:22;99392.00;;;19.50
9985;BMP180;16737;50.932;6.780;2023-08-30T07:11:54;99352.00;;;19.50
9985;BMP180;16737;50.932;6.780;2023-08-30T07:14:23;99392.00;;;19.60
9985;BMP180;16737;50.932;6.780;2023-08-30T07:16:50;99400.00;;;19.60
9985;BMP180;16737;50.932;6.780;2023-08-30T07:19:18;99402.00;;;19.70
9985;BMP180;16737;50.932;6.780;2023-08-30T07:21:45;99347.00;;;19.70
9985;BMP180;16737;50.932;6.780;2023-08-30T07:24:12;99377.00;;;19.80
9985;BMP180;16737;50.932;6.780;2023-08-30T07:26:39;99314.00;;;19.80
9985;BMP180;16737;50.932;6.780;2023-08-30T07:29:06;99391.00;;;19.90
9985;BMP180;16737;50.932;6.780;2023-08-30T07:31:35;99375.00;;;19.90
9985;BMP180;16737;50.932;6.780;2023-08-30T07:34:02;99341.00;;;20.00
9985;BMP180;16737;50.932;6.780;2023-08-30T07:36:30;99318.00;;;20.00
9985;BMP180;16737;50.932;6.780;2023-08-30T07:38:58;99366.00;;;20.10
9985;BMP180;16737;50.932;6.780;2023-08-30T07:41:25;99390.00;;;20.10
9985;BMP180;16737;50.932;6.780;2023-08-30T07:43:52;99385.00;;;20.20
9985;BMP180;16737;50.932;6.780;2023-08-30T07:46:19;99298.00;;;20.30
9985;BMP180;16737;50.932;6.780;2023-08-30T07:48:48;99380.00;;;20.40
9985;BMP180;16737;50.932;6.780;2023-08-30T07:51:15;99379.00;;;20.60
9985;BMP180;16737;50.932;6.780;2023-08-30T07:53:42;99386.00;;;20.50
9985;BMP180;16737;50.932;6.780;2023-08-30T07:56:09;99324.00;;;20.70
9985;BMP180;16737;50.932;6.780;2023-08-30T07:58:36;99350.00;;;20.80
9985;BMP180;16737;50.932;6.780;2023-08-30T08:01:03;99377.00;;;20.90
9985;BMP180;16737;50.932;6.780;2023-08-30T08:03:30;99380.00;;;21.00
9985;BMP180;16737;50.932;6.780;2023-08-30T08:05:59;99360.00;;;21.10
9985;BMP180;16737;50.932;6.780;2023-08-30T08:08:26;99379.00;;;21.10
9985;BMP180;16737;50.932;6.780;2023-08-30T08:10:53;99376.00;;;21.20
9985;BMP180;16737;50.932;6.780;2023-08-30T08:13:20;99375.00;;;21.30
9985;BMP180;16737;50.932;6.780;2023-08-30T08:15:48;99360.00;;;21.40
9985;BMP180;16737;50.932;6.780;2023-08-30T08:18:15;99376.00;;;21.50
9985;BMP180;16737;50.932;6.780;2023-08-30T08:20:42;99369.00;;;21.20
9985;BMP180;16737;50.932;6.780;2023-08-30T08:23:11;99374.00;;;21.70
9985;BMP180;16737;50.932;6.780;2023-08-30T08:25:38;99356.00;;;21.80
9985;BMP180;16737;50.932;6.780;2023-08-30T08:28:05;99380.00;;;21.90
9985;BMP180;16737;50.932;6.780;2023-08-30T08:30:32;99371.00;;;21.90
9985;BMP180;16737;50.932;6.780;2023-08-30T08:32:59;99374.00;;;22.00
9985;BMP180;16737;50.932;6.780;2023-08-30T08:35:26;99368.00;;;22.10
9985;BMP180;16737;50.932;6.780;2023-08-30T08:37:54;99363.00;;;22.10
9985;BMP180;16737;50.932;6.780;2023-08-30T08:40:22;99370.00;;;22.20
9985;BMP180;16737;50.932;6.780;2023-08-30T08:42:50;99369.00;;;22.30
9985;BMP180;16737;50.932;6.780;2023-08-30T08:45:18;99366.00;;;22.20
9985;BMP180;16737;50.932;6.780;2023-08-30T08:47:46;99357.00;;;22.50
9985;BMP180;16737;50.932;6.780;2023-08-30T08:50:14;99358.00;;;22.60
9985;BMP180;16737;50.932;6.780;2023-08-30T08:52:41;99355.00;;;22.70
9985;BMP180;16737;50.932;6.780;2023-08-30T08:55:09;99310.00;;;22.80
9985;BMP180;16737;50.932;6.780;2023-08-30T08:57:39;99368.00;;;22.90
9985;BMP180;16737;50.932;6.780;2023-08-30T09:00:08;99367.00;;;23.00
9985;BMP180;16737;50.932;6.780;2023-08-30T09:02:35;99365.00;;;23.00
9985;BMP180;16737;50.932;6.780;2023-08-30T09:05:03;99319.00;;;23.00
9985;BMP180;16737;50.932;6.780;2023-08-30T09:07:32;99369.00;;;23.10
9985;BMP180;16737;50.932;6.780;2023-08-30T09:10:00;99370.00;;;23.10
9985;BMP180;16737;50.932;6.780;2023-08-30T09:12:27;99340.00;;;23.00
9985;BMP180;16737;50.932;6.780;2023-08-30T09:14:56;99357.00;;;23.00
9985;BMP180;16737;50.932;6.780;2023-08-30T09:17:34;99359.00;;;23.10
9985;BMP180;16737;50.932;6.780;2023-08-30T09:20:07;99346.00;;;23.00
9985;BMP180;16737;50.932;6.780;2023-08-30T09:22:39;99363.00;;;22.90
9985;BMP180;16737;50.932;6.780;2023-08-30T09:25:09;99340.00;;;23.10
9985;BMP180;16737;50.932;6.780;2023-08-30T09:27:37;99326.00;;;23.20
9985;BMP180;16737;50.932;6.780;2023-08-30T09:30:10;99360.00;;;23.20
9985;BMP180;16737;50.932;6.780;2023-08-30T09:32:41;99327.00;;;23.20
9985;BMP180;16737;50.932;6.780;2023-08-30T09:35:09;99352.00;;;23.20
9985;BMP180;16737;50.932;6.780;2023-08-30T09:37:36;99348.00;;;23.20
9985;BMP180;16737;50.932;6.780;2023-08-30T09:40:06;99326.00;;;23.20
9985;BMP180;16737;50.932;6.780;2023-08-30T09:42:33;99289.00;;;23.30
9985;BMP180;16737;50.932;6.780;2023-08-30T09:45:00;99299.00;;;23.30
9985;BMP180;16737;50.932;6.780;2023-08-30T09:47:30;99348.00;;;23.30
9985;BMP180;16737;50.932;6.780;2023-08-30T09:50:00;99336.00;;;23.30
9985;BMP180;16737;50.932;6.780;2023-08-30T09:52:30;99329.00;;;23.40
9985;BMP180;16737;50.932;6.780;2023-08-30T09:54:58;99344.00;;;23.40
9985;BMP180;16737;50.932;6.780;2023-08-30T09:57:27;99337.00;;;23.40
9985;BMP180;16737;50.932;6.780;2023-08-30T09:59:56;99282.00;;;23.40
9985;BMP180;16737;50.932;6.780;2023-08-30T10:02:25;99336.00;;;23.40
9985;BMP180;16737;50.932;6.780;2023-08-30T10:04:54;99315.00;;;23.40
9985;BMP180;16737;50.932;6.780;2023-08-30T10:07:23;99333.00;;;23.40
9985;BMP180;16737;50.932;6.780;2023-08-30T10:09:51;99288.00;;;23.40
9985;BMP180;16737;50.932;6.780;2023-08-30T10:12:20;99324.00;;;23.40
9985;BMP180;16737;50.932;6.780;2023-08-30T10:14:48;99333.00;;;23.40
9985;BMP180;16737;50.932;6.780;2023-08-30T10:17:20;99304.00;;;23.40
9985;BMP180;16737;50.932;6.780;2023-08-30T10:19:50;99310.00;;;23.40
9985;BMP180;16737;50.932;6.780;2023-08-30T10:22:21;99326.00;;;23.40
9985;BMP180;16737;50.932;6.780;2023-08-30T10:24:54;99315.00;;;23.40
9985;BMP180;16737;50.932;6.780;2023-08-30T10:27:24;99265.00;;;23.40
9985;BMP180;16737;50.932;6.780;2023-08-30T10:29:54;99314.00;;;23.40
9985;BMP180;16737;50.932;6.780;2023-08-30T10:32:22;99277.00;;;23.50
9985;BMP180;16737;50.932;6.780;2023-08-30T10:34:50;99312.00;;;23.50
9985;BMP180;16737;50.932;6.780;2023-08-30T10:37:25;99307.00;;;23.50
9985;BMP180;16737;50.932;6.780;2023-08-30T10:39:59;99314.00;;;23.50
9985;BMP180;16737;50.932;6.780;2023-08-30T10:42:26;99297.00;;;23.50
9985;BMP180;16737;50.932;6.780;2023-08-30T10:44:59;99313.00;;;23.50
9985;BMP180;16737;50.932;6.780;2023-08-30T10:47:29;99332.00;;;23.40
9985;BMP180;16737;50.932;6.780;2023-08-30T10:49:58;99340.00;;;23.30
9985;BMP180;16737;50.932;6.780;2023-08-30T10:52:27;99328.00;;;23.10
9985;BMP180;16737;50.932;6.780;2023-08-30T10:55:05;99350.00;;;22.80
9985;BMP180;16737;50.932;6.780;2023-08-30T10:57:33;99341.00;;;22.60
9985;BMP180;16737;50.932;6.780;2023-08-30T11:00:08;99346.00;;;22.30
9985;BMP180;16737;50.932;6.780;2023-08-30T11:02:37;99348.00;;;22.20
9985;BMP180;16737;50.932;6.780;2023-08-30T11:05:08;99270.00;;;21.90
9985;BMP180;16737;50.932;6.780;2023-08-30T11:07:37;99296.00;;;21.80
9985;BMP180;16737;50.932;6.780;2023-08-30T11:10:05;99356.00;;;21.60
9985;BMP180;16737;50.932;6.780;2023-08-30T11:12:32;99337.00;;;21.40
9985;BMP180;16737;50.932;6.780;2023-08-30T11:14:59;99358.00;;;21.30
9985;BMP180;16737;50.932;6.780;2023-08-30T11:17:27;99346.00;;;21.10
9985;BMP180;16737;50.932;6.780;2023-08-30T11:20:04;99352.00;;;21.00
9985;BMP180;16737;50.932;6.780;2023-08-30T11:22:32;99346.00;;;20.90
9985;BMP180;16737;50.932;6.780;2023-08-30T11:25:01;99287.00;;;20.90
9985;BMP180;16737;50.932;6.780;2023-08-30T11:27:29;99318.00;;;20.80
9985;BMP180;16737;50.932;6.780;2023-08-30T11:29:59;99341.00;;;20.80
9985;BMP180;16737;50.932;6.780;2023-08-30T11:32:27;99343.00;;;20.80
9985;BMP180;16737;50.932;6.780;2023-08-30T11:34:57;99292.00;;;20.80
9985;BMP180;16737;50.932;6.780;2023-08-30T11:37:26;99335.00;;;20.70
9985;BMP180;16737;50.932;6.780;2023-08-30T11:39:55;99336.00;;;20.70
9985;BMP180;16737;50.932;6.780;2023-08-30T11:42:25;99344.00;;;20.70
9985;BMP180;16737;50.932;6.780;2023-08-30T11:44:52;99320.00;;;20.70
9985;BMP180;16737;50.932;6.780;2023-08-30T11:47:20;99334.00;;;20.70
9985;BMP180;16737;50.932;6.780;2023-08-30T11:49:48;99339.00;;;20.70
9985;BMP180;16737;50.932;6.780;2023-08-30T11:52:17;99322.00;;;20.70
9985;BMP180;16737;50.932;6.780;2023-08-30T11:54:47;99323.00;;;20.60
9985;BMP180;16737;50.932;6.780;2023-08-30T11:57:14;99283.00;;;20.60
9985;BMP180;16737;50.932;6.780;2023-08-30T11:59:43;99328.00;;;20.60
9985;BMP180;16737;50.932;6.780;2023-08-30T12:02:13;99349.00;;;20.60
9985;BMP180;16737;50.932;6.780;2023-08-30T12:04:42;99284.00;;;20.70
9985;BMP180;16737;50.932;6.780;2023-08-30T12:07:09;99346.00;;;20.70
9985;BMP180;16737;50.932;6.780;2023-08-30T12:09:37;99341.00;;;20.70
9985;BMP180;16737;50.932;6.780;2023-08-30T12:12:10;99342.00;;;20.70
9985;BMP180;16737;50.932;6.780;2023-08-30T12:14:37;99341.00;;;20.80
9985;BMP180;16737;50.932;6.780;2023-08-30T12:17:08;99349.00;;;20.80
9985;BMP180;16737;50.932;6.780;2023-08-30T12:19:38;99345.00;;;20.80
9985;BMP180;16737;50.932;6.780;2023-08-30T12:22:07;99359.00;;;20.80
9985;BMP180;16737;50.932;6.780;2023-08-30T12:24:42;99347.00;;;20.70
9985;BMP180;16737;50.932;6.780;2023-08-30T12:27:09;99311.00;;;20.70
9985;BMP180;16737;50.932;6.780;2023-08-30T12:29:37;99232.00;;;20.60
9985;BMP180;16737;50.932;6.780;2023-08-30T12:32:06;99341.00;;;20.60
9985;BMP180;16737;50.932;6.780;2023-08-30T12:34:34;99339.00;;;20.50
9985;BMP180;16737;50.932;6.780;2023-08-30T12:37:01;99324.00;;;20.50
9985;BMP180;16737;50.932;6.780;2023-08-30T12:39:29;99287.00;;;20.50
9985;BMP180;16737;50.932;6.780;2023-08-30T12:41:56;99329.00;;;20.50
9985;BMP180;16737;50.932;6.780;2023-08-30T12:44:23;99351.00;;;20.50
9985;BMP180;16737;50.932;6.780;2023-08-30T12:46:50;99333.00;;;20.50
9985;BMP180;16737;50.932;6.780;2023-08-30T12:49:18;99338.00;;;20.50
9985;BMP180;16737;50.932;6.780;2023-08-30T12:51:45;99331.00;;;20.50
9985;BMP180;16737;50.932;6.780;2023-08-30T12:54:12;99319.00;;;20.50
9985;BMP180;16737;50.932;6.780;2023-08-30T12:56:39;99339.00;;;20.50
9985;BMP180;16737;50.932;6.780;2023-08-30T12:59:06;99330.00;;;20.50
9985;BMP180;16737;50.932;6.780;2023-08-30T13:01:33;99331.00;;;20.50
9985;BMP180;16737;50.932;6.780;2023-08-30T13:04:00;99331.00;;;20.60
9985;BMP180;16737;50.932;6.780;2023-08-30T13:06:28;99334.00;;;20.60
9985;BMP180;16737;50.932;6.780;2023-08-30T13:08:57;99336.00;;;20.50
9985;BMP180;16737;50.932;6.780;2023-08-30T13:11:27;99324.00;;;20.50
9985;BMP180;16737;50.932;6.780;2023-08-30T13:13:58;99329.00;;;20.50
9985;BMP180;16737;50.932;6.780;2023-08-30T13:16:25;99329.00;;;20.50
9985;BMP180;16737;50.932;6.780;2023-08-30T13:18:53;99321.00;;;20.60
9985;BMP180;16737;50.932;6.780;2023-08-30T13:21:20;99311.00;;;20.50
9985;BMP180;16737;50.932;6.780;2023-08-30T13:23:49;99316.00;;;20.60
9985;BMP180;16737;50.932;6.780;2023-08-30T13:26:16;99300.00;;;20.60
9985;BMP180;16737;50.932;6.780;2023-08-30T13:28:43;99316.00;;;20.60
9985;BMP180;16737;50.932;6.780;2023-08-30T13:31:10;99315.00;;;20.60
9985;BMP180;16737;50.932;6.780;2023-08-30T13:33:37;99221.00;;;20.60
9985;BMP180;16737;50.932;6.780;2023-08-30T13:36:04;99321.00;;;20.60
9985;BMP180;16737;50.932;6.780;2023-08-30T13:38:31;99314.00;;;20.60
9985;BMP180;16737;50.932;6.780;2023-08-30T13:41:00;99317.00;;;20.60
9985;BMP180;16737;50.932;6.780;2023-08-30T13:43:29;99307.00;;;20.60
9985;BMP180;16737;50.932;6.780;2023-08-30T13:46:00;99297.00;;;20.50
9985;BMP180;16737;50.932;6.780;2023-08-30T13:48:27;99250.00;;;20.70
9985;BMP180;16737;50.932;6.780;2023-08-30T13:50:55;99319.00;;;20.60
9985;BMP180;16737;50.932;6.780;2023-08-30T13:53:22;99316.00;;;20.60
9985;BMP180;16737;50.932;6.780;2023-08-30T13:55:50;99274.00;;;20.60
9985;BMP180;16737;50.932;6.780;2023-08-30T13:58:19;99300.00;;;20.60
9985;BMP180;16737;50.932;6.780;2023-08-30T14:00:46;99315.00;;;20.60
9985;BMP180;16737;50.932;6.780;2023-08-30T14:03:13;99276.00;;;20.60
9985;BMP180;16737;50.932;6.780;2023-08-30T14:05:40;99317.00;;;20.60
9985;BMP180;16737;50.932;6.780;2023-08-30T14:08:07;99223.00;;;20.50
9985;BMP180;16737;50.932;6.780;2023-08-30T14:10:35;99268.00;;;20.50
9985;BMP180;16737;50.932;6.780;2023-08-30T14:13:02;99298.00;;;20.40
9985;BMP180;16737;50.932;6.780;2023-08-30T14:15:30;99312.00;;;20.40
9985;BMP180;16737;50.932;6.780;2023-08-30T14:17:57;99347.00;;;20.40
9985;BMP180;16737;50.932;6.780;2023-08-30T14:20:24;99341.00;;;20.40
9985;BMP180;16737;50.932;6.780;2023-08-30T14:22:52;99356.00;;;20.30
9985;BMP180;16737;50.932;6.780;2023-08-30T14:25:19;99338.00;;;20.10
9985;BMP180;16737;50.932;6.780;2023-08-30T14:27:46;99355.00;;;20.30
9985;BMP180;16737;50.932;6.780;2023-08-30T14:30:14;99266.00;;;20.20